Silver Bell, Arizona
Current Conditions -  °F | °C
As of 8:35 PM on Saturday 22 Nov 2014 (Local Time) from KAVQ Reporting Station
Clear Clear  
Wind Chill: 53°   Ceiling: Unl
Heat Index: 53°   Visibility: 10mi
Dew Point: 25°   Wind: 6mph
Humidity: 33%   Direction: 240°WSW
Pressure: 29.99"   Gusts: NA
Location:  32.38°N, 111.5°W
Report Text: KAVQ 230335Z AUTO 24005KT 10SM CLR 12/M04 A2999 RMK AO2 T01191039
Loading
Personal Weather Stations






























Interactive Weather Map New forecast layout! Learn more

10-Day Weather Forecast

Advertisements
Track Severe Weather on mobile